createdAt,value
2018-04-06T00:00:41.177Z,42.27
2018-04-06T00:03:10.301Z,36.33
2018-04-06T00:05:39.471Z,50.93
2018-04-06T00:08:07.741Z,41.17
2018-04-06T00:10:36.060Z,39.57
2018-04-06T00:13:05.168Z,39.53
2018-04-06T00:15:33.844Z,30.00
2018-04-06T00:18:02.507Z,45.63
2018-04-06T00:20:31.093Z,35.03
2018-04-06T00:23:00.486Z,36.03
2018-04-06T00:25:29.546Z,60.30
2018-04-06T00:27:57.799Z,46.53
2018-04-06T00:30:26.881Z,54.73
2018-04-06T00:32:55.154Z,40.30
2018-04-06T00:35:23.451Z,52.13
2018-04-06T00:37:52.858Z,32.27
2018-04-06T00:40:21.140Z,30.90
2018-04-06T00:42:50.232Z,45.53
2018-04-06T00:45:18.703Z,35.97
2018-04-06T00:47:47.092Z,34.57
2018-04-06T00:50:15.390Z,44.80
2018-04-06T00:52:44.404Z,43.93
2018-04-06T00:55:13.452Z,36.27
2018-04-06T00:57:42.520Z,43.17
2018-04-06T01:00:11.669Z,49.47
2018-04-06T01:02:39.941Z,40.80
2018-04-06T01:05:09.413Z,33.60
2018-04-06T01:07:38.240Z,25.17
2018-04-06T01:10:07.278Z,39.17
2018-04-06T01:12:35.571Z,49.57
2018-04-06T01:15:04.035Z,51.03
2018-04-06T01:17:32.324Z,42.67
2018-04-06T01:20:00.892Z,26.23
2018-04-06T01:22:29.412Z,50.23
2018-04-06T01:24:57.688Z,41.53
2018-04-06T01:27:27.177Z,35.57
2018-04-06T01:29:55.901Z,25.53
2018-04-06T01:32:24.647Z,30.23
2018-04-06T01:34:52.936Z,35.60
2018-04-06T01:37:21.228Z,45.23
2018-04-06T01:39:49.787Z,46.43
2018-04-06T01:42:18.105Z,38.30
2018-04-06T01:44:47.659Z,32.03
2018-04-06T01:47:17.662Z,47.30
2018-04-06T01:49:46.699Z,47.97
2018-04-06T01:52:15.929Z,26.10
2018-04-06T01:54:44.211Z,46.90
2018-04-06T01:57:13.173Z,32.53
2018-04-06T01:59:41.432Z,50.43
2018-04-06T02:02:09.944Z,39.33
2018-04-06T02:04:38.217Z,50.90
2018-04-06T02:07:07.941Z,54.50
2018-04-06T02:09:36.971Z,34.00
2018-04-06T02:12:06.391Z,36.70
2018-04-06T02:14:36.817Z,53.23
2018-04-06T02:17:06.931Z,23.13
2018-04-06T02:19:36.060Z,39.10
2018-04-06T02:22:04.349Z,22.00
2018-04-06T02:24:32.665Z,53.50
2018-04-06T02:27:00.904Z,38.07
2018-04-06T02:29:29.492Z,34.83
2018-04-06T02:31:58.925Z,40.63
2018-04-06T02:34:27.720Z,55.07
2018-04-06T02:36:56.052Z,36.87
2018-04-06T02:39:24.334Z,34.40
2018-04-06T02:41:52.660Z,29.57
2018-04-06T02:44:20.987Z,38.67
2018-04-06T02:46:49.370Z,39.17
2018-04-06T02:49:17.645Z,22.70
2018-04-06T02:51:45.920Z,24.03
2018-04-06T02:54:14.326Z,38.93
2018-04-06T02:56:42.603Z,42.57
2018-04-06T02:59:10.961Z,44.10
2018-04-06T03:01:39.227Z,36.60
2018-04-06T03:04:07.516Z,33.87
2018-04-06T03:06:36.099Z,36.13
2018-04-06T03:09:04.396Z,35.67
2018-04-06T03:11:32.668Z,52.57
2018-04-06T03:14:00.940Z,49.10
2018-04-06T03:16:29.315Z,32.50
2018-04-06T03:18:58.128Z,35.90
2018-04-06T03:21:26.419Z,43.63
2018-04-06T03:23:55.580Z,38.37
2018-04-06T03:26:24.050Z,48.37
2018-04-06T03:28:52.345Z,57.90
2018-04-06T03:31:20.625Z,46.40
2018-04-06T03:33:49.611Z,29.23
2018-04-06T03:36:17.877Z,51.70
2018-04-06T03:38:46.217Z,44.87
2018-04-06T03:41:14.523Z,51.67
2018-04-06T03:43:42.778Z,31.67
2018-04-06T03:46:12.748Z,51.07
2018-04-06T03:48:41.379Z,29.90
2018-04-06T03:51:11.509Z,36.50
2018-04-06T03:53:41.053Z,34.23
2018-04-06T03:56:09.448Z,38.37
2018-04-06T03:58:37.972Z,32.20
2018-04-06T04:01:07.235Z,33.80
2018-04-06T04:03:35.511Z,43.87
2018-04-06T04:06:03.774Z,25.33
2018-04-06T04:08:32.876Z,56.77
2018-04-06T04:11:01.148Z,38.13
2018-04-06T04:13:29.983Z,34.53
2018-04-06T04:15:59.621Z,46.37
2018-04-06T04:18:27.893Z,33.33
2018-04-06T04:20:56.972Z,55.00
2018-04-06T04:23:25.567Z,34.33
2018-04-06T04:25:55.683Z,39.27
2018-04-06T04:28:25.299Z,52.93
2018-04-06T04:30:54.340Z,52.40
2018-04-06T04:33:22.765Z,50.73
2018-04-06T04:35:51.590Z,33.03
2018-04-06T04:38:21.259Z,61.63
2018-04-06T04:40:49.551Z,45.27
2018-04-06T04:43:18.630Z,46.23
2018-04-06T04:45:46.887Z,41.70
2018-04-06T04:48:15.866Z,47.97
2018-04-06T04:50:44.969Z,27.23
2018-04-06T04:53:14.090Z,51.10
2018-04-06T04:55:42.667Z,36.93
2018-04-06T04:58:10.931Z,29.27
2018-04-06T05:00:39.276Z,32.53
2018-04-06T05:03:08.487Z,33.40
2018-04-06T05:05:37.203Z,35.30
2018-04-06T05:08:05.816Z,25.00
2018-04-06T05:10:34.342Z,51.67
2018-04-06T05:13:02.604Z,32.03
2018-04-06T05:15:30.869Z,46.97
2018-04-06T05:17:59.954Z,20.60
2018-04-06T05:20:29.728Z,29.20
2018-04-06T05:22:58.828Z,36.63
2018-04-06T05:25:27.115Z,30.37
2018-04-06T05:27:55.398Z,36.93
2018-04-06T05:30:24.433Z,42.97
2018-04-06T05:32:52.868Z,30.23
2018-04-06T05:35:21.152Z,28.40
2018-04-06T05:37:49.737Z,22.80
2018-04-06T05:40:18.012Z,36.47
2018-04-06T05:42:46.307Z,48.40
2018-04-06T05:45:15.480Z,30.40
2018-04-06T05:47:44.708Z,41.63
2018-04-06T05:50:13.784Z,47.97
2018-04-06T05:52:42.104Z,48.07
2018-04-06T05:55:10.468Z,30.00
2018-04-06T05:57:39.312Z,29.57
2018-04-06T06:00:07.612Z,51.67
2018-04-06T06:02:35.948Z,35.77
2018-04-06T06:05:04.214Z,36.67
2018-04-06T06:07:33.039Z,29.40
2018-04-06T06:10:01.296Z,29.87
2018-04-06T06:12:29.578Z,25.20
2018-04-06T06:14:58.080Z,24.07
2018-04-06T06:17:26.670Z,43.27
2018-04-06T06:19:55.738Z,44.37
2018-04-06T06:22:24.252Z,30.97
2018-04-06T06:24:52.529Z,32.97
2018-04-06T06:27:22.529Z,35.90
2018-04-06T06:29:50.913Z,54.57
2018-04-06T06:32:19.340Z,24.83
2018-04-06T06:34:48.380Z,30.50
2018-04-06T06:37:18.301Z,26.43
2018-04-06T06:39:46.602Z,20.67
2018-04-06T06:42:15.925Z,37.17
2018-04-06T06:47:18.758Z,27.03
2018-04-06T06:49:47.689Z,16.60
2018-04-06T06:52:15.960Z,42.53
2018-04-06T06:54:44.241Z,36.70
2018-04-06T06:57:12.536Z,26.73
2018-04-06T06:59:40.888Z,24.10
2018-04-06T07:02:09.607Z,34.97
2018-04-06T07:04:38.156Z,32.20
2018-04-06T07:07:06.540Z,19.33
2018-04-06T07:09:34.814Z,47.90
2018-04-06T07:12:03.185Z,27.50
2018-04-06T07:14:31.463Z,34.43
2018-04-06T07:17:00.271Z,26.23
2018-04-06T07:19:28.675Z,37.53
2018-04-06T07:21:57.768Z,13.93
2018-04-06T07:24:26.076Z,24.37
2018-04-06T07:26:56.436Z,35.83
2018-04-06T07:29:25.030Z,26.13
2018-04-06T07:31:55.299Z,21.83
2018-04-06T07:34:24.884Z,29.37
2018-04-06T07:36:53.156Z,27.03
2018-04-06T07:39:21.435Z,24.40
2018-04-06T07:41:50.001Z,20.80
2018-04-06T07:44:18.339Z,20.97
2018-04-06T07:46:46.836Z,25.77
2018-04-06T07:49:15.371Z,23.50
2018-04-06T07:51:44.332Z,21.70
2018-04-06T07:54:13.384Z,29.10
2018-04-06T07:56:41.936Z,17.53
2018-04-06T07:59:13.893Z,20.20
2018-04-06T08:01:42.812Z,23.67
2018-04-06T08:04:11.260Z,36.90
2018-04-06T08:06:40.547Z,15.50
2018-04-06T08:09:09.836Z,23.03
2018-04-06T08:11:38.112Z,27.67
2018-04-06T08:14:06.899Z,21.87
2018-04-06T08:16:35.950Z,32.87
2018-04-06T08:19:04.308Z,21.90
2018-04-06T08:21:32.710Z,10.90
2018-04-06T08:24:01.669Z,31.27
2018-04-06T08:26:29.943Z,28.07
2018-04-06T08:28:59.160Z,22.87
2018-04-06T08:31:27.451Z,15.57
2018-04-06T08:36:30.552Z,37.77
2018-04-06T08:38:58.828Z,16.17
2018-04-06T08:41:27.819Z,15.83
2018-04-06T08:43:56.928Z,19.07
2018-04-06T08:46:25.705Z,16.00
2018-04-06T08:48:53.988Z,16.23
2018-04-06T08:51:23.239Z,18.03
2018-04-06T08:53:52.288Z,15.10
2018-04-06T08:56:20.560Z,20.33
2018-04-06T08:58:49.156Z,19.00
2018-04-06T09:01:17.995Z,12.33
2018-04-06T09:03:46.272Z,10.90
2018-04-06T09:06:15.213Z,19.43
2018-04-06T09:08:44.282Z,6.00
2018-04-06T09:11:16.382Z,9.83
2018-04-06T09:13:44.640Z,8.63
2018-04-06T09:16:13.938Z,13.50
2018-04-06T09:18:43.145Z,14.20
2018-04-06T09:21:11.454Z,9.50
2018-04-06T09:23:40.180Z,10.90
2018-04-06T09:26:08.588Z,6.73
2018-04-06T09:28:37.722Z,8.40
2018-04-06T09:31:06.068Z,12.10
2018-04-06T09:33:36.298Z,10.23
2018-04-06T09:36:05.304Z,12.87
2018-04-06T09:38:33.568Z,12.23
2018-04-06T09:41:02.167Z,18.10
2018-04-06T09:43:30.460Z,13.13
2018-04-06T09:45:59.713Z,8.07
2018-04-06T09:48:28.096Z,9.73
2018-04-06T09:50:56.386Z,19.10
2018-04-06T09:53:24.666Z,11.27
2018-04-06T09:55:52.983Z,9.77
2018-04-06T09:58:22.089Z,4.07
2018-04-06T10:00:56.609Z,9.30
2018-04-06T10:03:25.858Z,12.70
2018-04-06T10:05:54.256Z,5.03
2018-04-06T10:08:23.341Z,7.67
2018-04-06T10:10:52.770Z,5.60
2018-04-06T10:13:21.036Z,2.70
2018-04-06T10:15:50.739Z,6.67
2018-04-06T10:18:19.307Z,7.33
2018-04-06T10:20:48.416Z,7.37
2018-04-06T10:23:17.599Z,5.60
2018-04-06T10:25:46.592Z,2.63
2018-04-06T10:28:15.684Z,3.33
2018-04-06T10:30:43.958Z,8.23
2018-04-06T10:33:12.282Z,6.73
2018-04-06T10:35:41.144Z,4.63
2018-04-06T10:38:09.554Z,8.50
2018-04-06T10:40:39.529Z,6.10
2018-04-06T10:43:07.792Z,7.40
2018-04-06T10:45:36.087Z,4.93
2018-04-06T10:48:04.360Z,4.47
2018-04-06T10:50:32.932Z,5.80
2018-04-06T10:53:01.221Z,5.73
2018-04-06T10:55:30.328Z,3.80
2018-04-06T10:57:59.336Z,14.93
2018-04-06T11:00:27.596Z,11.60
2018-04-06T11:02:55.864Z,4.27
2018-04-06T11:05:25.171Z,2.10
2018-04-06T11:07:54.037Z,3.20
2018-04-06T11:10:24.716Z,10.70
2018-04-06T11:12:52.972Z,4.77
2018-04-06T11:15:21.304Z,12.57
2018-04-06T11:17:49.644Z,6.60
2018-04-06T11:20:19.046Z,2.33
2018-04-06T11:22:49.164Z,9.07
2018-04-06T11:25:18.389Z,11.63
2018-04-06T11:27:46.991Z,1.07
2018-04-06T11:30:15.337Z,5.37
2018-04-06T11:32:43.620Z,1.70
2018-04-06T11:35:13.217Z,2.77
2018-04-06T11:37:42.837Z,1.57
2018-04-06T11:40:13.285Z,6.77
2018-04-06T11:42:41.628Z,5.60
2018-04-06T11:45:09.883Z,5.00
2018-04-06T11:47:38.216Z,8.00
2018-04-06T11:50:06.512Z,6.47
2018-04-06T11:52:34.782Z,5.77
2018-04-06T11:55:03.099Z,11.20
2018-04-06T11:57:32.386Z,10.03
2018-04-06T12:00:01.960Z,10.60
2018-04-06T12:02:31.074Z,1.90
2018-04-06T12:05:00.128Z,10.00
2018-04-06T12:07:28.408Z,2.93
2018-04-06T12:09:57.400Z,4.50
2018-04-06T12:12:26.780Z,1.57
2018-04-06T12:14:55.085Z,4.70
2018-04-06T12:17:23.555Z,6.07
2018-04-06T12:19:51.837Z,5.63
2018-04-06T12:22:20.112Z,2.97
2018-04-06T12:24:48.608Z,4.50
2018-04-06T12:27:18.146Z,5.80
2018-04-06T12:29:48.751Z,2.70
2018-04-06T12:32:17.019Z,5.90
2018-04-06T12:34:45.607Z,7.03
2018-04-06T12:37:14.193Z,6.67
2018-04-06T12:39:44.116Z,7.20
2018-04-06T12:42:12.438Z,5.07
2018-04-06T12:44:42.794Z,3.00
2018-04-06T12:47:11.089Z,3.50
2018-04-06T12:49:39.370Z,7.83
2018-04-06T12:52:08.145Z,4.00
2018-04-06T12:54:36.437Z,2.23
2018-04-06T12:57:04.716Z,3.60
2018-04-06T12:59:33.706Z,4.90
2018-04-06T13:02:02.456Z,5.83
2018-04-06T13:04:31.592Z,6.10
2018-04-06T13:07:00.181Z,3.03
2018-04-06T13:09:28.568Z,15.50
2018-04-06T13:11:57.343Z,2.50
2018-04-06T13:14:25.650Z,3.23
2018-04-06T13:16:54.108Z,4.97
2018-04-06T13:19:22.393Z,1.10
2018-04-06T13:21:50.708Z,3.13
2018-04-06T13:24:20.619Z,3.93
2018-04-06T13:26:48.935Z,3.17
2018-04-06T13:29:17.256Z,2.40
2018-04-06T13:31:45.828Z,4.67
2018-04-06T13:34:14.143Z,3.17
2018-04-06T13:36:43.190Z,12.63
2018-04-06T13:39:11.585Z,3.17
2018-04-06T13:41:40.621Z,3.93
2018-04-06T13:44:09.676Z,3.27
2018-04-06T13:46:38.488Z,2.97
2018-04-06T13:49:06.704Z,9.13
2018-04-06T13:51:36.104Z,8.03
2018-04-06T13:54:05.016Z,3.00
2018-04-06T13:56:33.309Z,3.20
2018-04-06T13:59:01.603Z,7.90
2018-04-06T14:01:29.981Z,3.33
2018-04-06T14:03:58.247Z,5.13
2018-04-06T14:06:26.525Z,3.10
2018-04-06T14:08:54.847Z,4.40
2018-04-06T14:11:24.728Z,4.43
2018-04-06T14:13:54.712Z,2.70
2018-04-06T14:16:24.648Z,4.63
2018-04-06T14:18:53.789Z,4.60
2018-04-06T14:21:22.158Z,8.33
2018-04-06T14:23:50.467Z,6.30
2018-04-06T14:26:20.413Z,1.87
2018-04-06T14:28:48.959Z,7.50
2018-04-06T14:31:18.350Z,3.67
2018-04-06T14:33:46.661Z,4.07
2018-04-06T14:36:14.957Z,2.40
2018-04-06T14:38:43.853Z,1.57
2018-04-06T14:41:12.120Z,2.60
2018-04-06T14:43:40.386Z,2.53
2018-04-06T14:46:09.098Z,5.53
2018-04-06T14:48:37.732Z,4.63
2018-04-06T14:51:06.789Z,3.00
2018-04-06T14:53:35.358Z,3.10
2018-04-06T14:56:03.795Z,4.47
2018-04-06T14:58:32.931Z,4.23
2018-04-06T15:01:03.393Z,2.50
2018-04-06T15:03:32.629Z,1.67
2018-04-06T15:06:01.668Z,5.70
2018-04-06T15:08:29.961Z,2.50
2018-04-06T15:10:58.782Z,7.10
2018-04-06T15:13:28.605Z,2.63
2018-04-06T15:15:57.936Z,5.53
2018-04-06T15:18:26.225Z,4.00
2018-04-06T15:20:54.522Z,2.57
2018-04-06T15:23:22.860Z,4.77
2018-04-06T15:25:51.149Z,4.63
2018-04-06T15:28:19.437Z,2.40
2018-04-06T15:30:47.837Z,2.87
2018-04-06T15:33:16.516Z,3.13
2018-04-06T15:35:45.414Z,2.83
2018-04-06T15:38:13.820Z,3.33
2018-04-06T15:40:42.100Z,2.40
2018-04-06T15:43:10.374Z,3.43
2018-04-06T15:45:39.532Z,2.03
2018-04-06T15:48:09.396Z,1.70
2018-04-06T15:50:38.664Z,4.17
2018-04-06T15:53:07.037Z,2.50
2018-04-06T15:55:35.311Z,5.30
2018-04-06T15:58:03.592Z,3.63
2018-04-06T16:00:31.929Z,2.40
2018-04-06T16:03:00.387Z,2.20
2018-04-06T16:05:28.695Z,6.27
2018-04-06T16:07:57.650Z,1.97
2018-04-06T16:10:25.932Z,6.30
2018-04-06T16:12:54.760Z,2.23
2018-04-06T16:15:23.065Z,3.20
2018-04-06T16:17:51.363Z,6.27
2018-04-06T16:20:20.011Z,4.30
2018-04-06T16:22:49.015Z,3.03
2018-04-06T16:25:17.690Z,6.37
2018-04-06T16:27:47.188Z,4.23
2018-04-06T16:30:15.456Z,5.17
2018-04-06T16:32:47.168Z,4.00
2018-04-06T16:35:15.442Z,7.70
2018-04-06T16:37:44.309Z,5.30
2018-04-06T16:40:14.248Z,8.23
2018-04-06T16:42:42.568Z,3.13
2018-04-06T16:45:11.901Z,3.37
2018-04-06T16:47:41.680Z,2.70
2018-04-06T16:50:10.883Z,11.00
2018-04-06T16:52:40.031Z,5.27
2018-04-06T16:55:08.316Z,6.63
2018-04-06T16:57:36.668Z,2.53
2018-04-06T17:00:05.086Z,7.40
2018-04-06T17:02:33.356Z,3.70
2018-04-06T17:05:02.669Z,5.20
2018-04-06T17:07:31.770Z,4.63
2018-04-06T17:10:00.069Z,2.60
2018-04-06T17:12:29.161Z,8.03
2018-04-06T17:14:58.274Z,4.33
2018-04-06T17:17:27.443Z,2.70
2018-04-06T17:19:56.690Z,4.17
2018-04-06T17:22:25.020Z,8.53
2018-04-06T17:24:54.037Z,1.40
2018-04-06T17:27:23.116Z,1.00
2018-04-06T17:29:52.213Z,3.13
2018-04-06T17:32:21.248Z,4.47
2018-04-06T17:34:49.588Z,4.70
2018-04-06T17:37:18.145Z,6.67
2018-04-06T17:39:46.605Z,3.37
2018-04-06T17:42:14.871Z,2.93
2018-04-06T17:44:43.297Z,3.00
2018-04-06T17:47:11.582Z,1.70
2018-04-06T17:49:39.856Z,2.30
2018-04-06T17:52:08.229Z,6.50
2018-04-06T17:54:37.412Z,2.60
2018-04-06T17:57:06.439Z,1.17
2018-04-06T17:59:34.723Z,1.90
2018-04-06T18:02:03.207Z,4.17
2018-04-06T18:04:32.844Z,6.33
2018-04-06T18:07:01.444Z,3.03
2018-04-06T18:09:30.497Z,1.10
2018-04-06T18:11:59.729Z,2.50
2018-04-06T18:14:28.762Z,6.83
2018-04-06T18:16:57.112Z,3.37
2018-04-06T18:19:28.840Z,8.17
2018-04-06T18:21:58.653Z,0.80
2018-04-06T18:24:27.724Z,9.00
2018-04-06T18:26:56.152Z,3.33
2018-04-06T18:29:24.688Z,6.77
2018-04-06T18:31:53.472Z,7.30
2018-04-06T18:34:21.790Z,7.07
2018-04-06T18:36:51.065Z,2.50
2018-04-06T18:39:19.874Z,5.90
2018-04-06T18:41:50.472Z,8.60
2018-04-06T18:44:18.756Z,4.43
2018-04-06T18:46:47.673Z,7.27
2018-04-06T18:49:17.688Z,7.30
2018-04-06T18:51:45.969Z,5.93
2018-04-06T18:54:14.840Z,7.60
2018-04-06T18:56:44.184Z,3.50
2018-04-06T18:59:14.902Z,6.50
2018-04-06T19:01:44.275Z,3.83
2018-04-06T19:04:12.570Z,3.13
2018-04-06T19:06:41.333Z,2.20
2018-04-06T19:09:09.699Z,7.20
2018-04-06T19:11:39.504Z,6.50
2018-04-06T19:14:07.769Z,4.77
2018-04-06T19:16:37.297Z,3.93
2018-04-06T19:19:05.573Z,3.60
2018-04-06T19:21:34.600Z,5.43
2018-04-06T19:24:02.904Z,5.63
2018-04-06T19:26:32.543Z,2.93
2018-04-06T19:29:00.802Z,3.60
2018-04-06T19:31:30.478Z,3.70
2018-04-06T19:33:58.793Z,8.70
2018-04-06T19:36:27.152Z,1.70
2018-04-06T19:38:56.656Z,3.67
2018-04-06T19:41:25.324Z,3.20
2018-04-06T19:43:53.634Z,5.60
2018-04-06T19:46:22.469Z,6.57
2018-04-06T19:48:50.747Z,5.83
2018-04-06T19:51:19.765Z,4.60
2018-04-06T19:53:48.340Z,3.97
2018-04-06T19:56:17.366Z,6.00
2018-04-06T19:58:46.405Z,10.63
2018-04-06T20:01:14.878Z,3.27
2018-04-06T20:03:43.164Z,6.97
2018-04-06T20:06:12.288Z,7.10
2018-04-06T20:08:41.573Z,13.90
2018-04-06T20:11:09.842Z,3.67
2018-04-06T20:13:38.988Z,5.60
2018-04-06T20:16:07.300Z,2.43
2018-04-06T20:18:35.573Z,9.70
2018-04-06T20:21:04.545Z,13.03
2018-04-06T20:23:32.845Z,5.23
2018-04-06T20:26:01.556Z,3.77
2018-04-06T20:28:29.839Z,19.07
2018-04-06T20:30:58.319Z,2.40
2018-04-06T20:33:27.340Z,6.63
2018-04-06T20:35:55.913Z,3.90
2018-04-06T20:38:24.284Z,6.10
2018-04-06T20:40:52.558Z,7.67
2018-04-06T20:43:20.830Z,2.70
2018-04-06T20:45:49.249Z,5.07
2018-04-06T20:48:18.028Z,8.87
2018-04-06T20:50:46.591Z,4.43
2018-04-06T20:53:43.089Z,6.33
2018-04-06T20:56:12.419Z,9.53
2018-04-06T20:58:40.680Z,5.40
2018-04-06T21:01:09.790Z,10.70
2018-04-06T21:03:38.109Z,4.80
2018-04-06T21:06:06.450Z,4.20
2018-04-06T21:08:34.717Z,8.30
2018-04-06T21:11:03.366Z,5.50
2018-04-06T21:13:32.009Z,6.13
2018-04-06T21:16:00.819Z,4.87
2018-04-06T21:18:29.088Z,7.13
2018-04-06T21:20:57.352Z,5.07
2018-04-06T21:23:26.381Z,7.30
2018-04-06T21:25:55.077Z,8.37
2018-04-06T21:28:23.997Z,6.27
2018-04-06T21:30:53.438Z,4.33
2018-04-06T21:33:21.707Z,5.40
2018-04-06T21:35:49.996Z,9.33
2018-04-06T21:38:18.288Z,10.27
2018-04-06T21:40:46.645Z,6.53
2018-04-06T21:43:14.937Z,3.83
2018-04-06T21:45:43.220Z,7.90
2018-04-06T21:48:11.528Z,8.70
2018-04-06T21:50:41.228Z,3.93
2018-04-06T21:53:09.671Z,6.10
2018-04-06T21:55:38.696Z,3.57
2018-04-06T21:58:07.089Z,9.70
2018-04-06T22:00:36.061Z,7.10
2018-04-06T22:03:04.342Z,3.83
2018-04-06T22:05:32.608Z,5.50
2018-04-06T22:08:00.873Z,4.30
2018-04-06T22:10:29.263Z,7.10
2018-04-06T22:12:57.622Z,4.67
2018-04-06T22:15:27.455Z,9.03
2018-04-06T22:17:55.839Z,3.53
2018-04-06T22:20:24.542Z,7.30
2018-04-06T22:22:53.046Z,5.07
2018-04-06T22:25:21.400Z,6.20
2018-04-06T22:27:50.264Z,10.13
2018-04-06T22:30:18.659Z,3.93
2018-04-06T22:32:46.957Z,7.20
2018-04-06T22:35:15.219Z,7.73
2018-04-06T22:37:43.683Z,12.37
2018-04-06T22:40:11.948Z,2.80
2018-04-06T22:42:40.212Z,7.07
2018-04-06T22:45:09.283Z,5.97
2018-04-06T22:47:37.932Z,9.20
2018-04-06T22:50:06.333Z,10.47
2018-04-06T22:52:34.633Z,5.80
2018-04-06T22:55:03.388Z,5.07
2018-04-06T22:57:32.171Z,6.30
2018-04-06T23:00:01.101Z,6.10
2018-04-06T23:02:29.736Z,12.80
2018-04-06T23:04:58.025Z,5.40
2018-04-06T23:07:27.568Z,4.13
2018-04-06T23:09:56.263Z,7.60
2018-04-06T23:12:24.564Z,3.60
2018-04-06T23:14:53.609Z,8.50
2018-04-06T23:17:21.972Z,14.20
2018-04-06T23:19:50.356Z,9.60
2018-04-06T23:22:19.556Z,8.37
2018-04-06T23:24:47.845Z,4.70
2018-04-06T23:27:16.128Z,14.47
2018-04-06T23:29:44.508Z,9.67
2018-04-06T23:32:12.784Z,6.60
2018-04-06T23:34:41.131Z,8.00
2018-04-06T23:37:10.969Z,14.00
2018-04-06T23:39:39.763Z,5.57
2018-04-06T23:42:08.541Z,7.13
2018-04-06T23:44:37.148Z,7.83
2018-04-06T23:47:06.153Z,14.63
2018-04-06T23:49:34.929Z,15.67
2018-04-06T23:52:03.719Z,9.20
2018-04-06T23:54:32.483Z,5.43
2018-04-06T23:57:00.853Z,4.73
2018-04-06T23:59:29.809Z,5.80
